Time;durP1;ratioP1;P1;durP2;ratioP2;P2;SDS_P1;SDS_P2;PMS_P1;PMS_P2;Temp;Humidity;BMP_temperature;BMP_pressure;BME280_temperature;BME280_humidity;BME280_pressure;Samples;Min_cycle;Max_cycle;Signal;HPM_P1;HPM_P2
2024/04/25 00:00:27;;;;;;;10.47;9.43;;;;;;;9.87;65.01;100055.88;5127868;28;20711;-77
2024/04/25 00:02:52;;;;;;;10.63;9.63;;;;;;;9.52;64.42;100054.06;5125765;27;20221;-77
2024/04/25 00:05:18;;;;;;;10.00;8.93;;;;;;;9.93;63.74;100053.28;5119140;27;20288;-76
2024/04/25 00:07:43;;;;;;;9.87;9.07;;;;;;;10.03;63.88;100047.22;5121331;28;20333;-77
2024/04/25 00:10:09;;;;;;;10.17;9.10;;;;;;;9.94;64.09;100052.41;5121753;28;20302;-77
2024/04/25 00:12:34;;;;;;;12.23;11.03;;;;;;;9.91;64.32;100047.22;5116133;28;20609;-77
2024/04/25 00:14:59;;;;;;;10.87;9.10;;;;;;;10.18;63.95;100045.50;5114306;27;20738;-77
2024/04/25 00:17:24;;;;;;;10.53;9.53;;;;;;;10.13;63.64;100047.22;5114715;28;20612;-78
2024/04/25 00:19:50;;;;;;;10.40;9.40;;;;;;;9.91;63.72;100050.66;5114738;27;20224;-77
2024/04/25 00:22:15;;;;;;;10.83;9.73;;;;;;;9.87;63.62;100050.69;5114177;28;20323;-76
2024/04/25 00:24:40;;;;;;;9.77;8.70;;;;;;;10.19;62.51;100040.28;5115398;27;20236;-77
2024/04/25 00:27:08;;;;;;;9.60;8.70;;;;;;;10.10;62.08;100038.53;5114953;27;20252;-77
2024/04/25 00:29:33;;;;;;;10.87;9.73;;;;;;;10.14;62.41;100033.34;5114438;27;20229;-77
2024/04/25 00:31:59;;;;;;;10.83;9.70;;;;;;;10.01;63.10;100038.56;5113705;28;20522;-77
2024/04/25 00:34:24;;;;;;;39.77;26.60;;;;;;;9.92;63.92;100033.31;5114146;28;20584;-77
2024/04/25 00:36:49;;;;;;;21.10;16.93;;;;;;;10.06;63.89;100035.94;5114074;27;20336;-76
2024/04/25 00:39:14;;;;;;;9.63;8.73;;;;;;;10.16;62.87;100039.41;5114337;27;20232;-77
2024/04/25 00:41:40;;;;;;;9.57;8.57;;;;;;;9.99;63.53;100040.25;5112921;28;20291;-77
2024/04/25 00:44:05;;;;;;;9.57;8.47;;;;;;;10.24;62.79;100038.56;5114368;28;20609;-78
2024/04/25 00:46:30;;;;;;;9.73;8.83;;;;;;;10.16;63.01;100035.06;5113951;27;20232;-76
2024/04/25 00:48:57;;;;;;;9.90;9.00;;;;;;;10.18;62.86;100035.06;5114521;27;20656;-78
2024/04/25 00:51:23;;;;;;;9.80;8.73;;;;;;;9.99;63.08;100027.25;5113945;28;20726;-78
2024/04/25 00:53:49;;;;;;;10.23;9.23;;;;;;;9.98;63.15;100027.25;5114391;28;20508;-78
2024/04/25 00:56:16;;;;;;;18.17;14.17;;;;;;;9.97;63.17;100030.72;5112773;28;20893;-77
2024/04/25 00:58:45;;;;;;;10.03;9.03;;;;;;;9.99;63.52;100024.66;5114518;27;20283;-77
2024/04/25 01:01:11;;;;;;;10.00;9.10;;;;;;;10.09;63.29;100020.28;5113972;28;20461;-78
2024/04/25 01:03:38;;;;;;;11.93;9.93;;;;;;;9.97;62.96;100013.34;5112838;28;20505;-78
2024/04/25 01:06:07;;;;;;;10.47;9.47;;;;;;;9.94;63.51;100016.84;5113427;28;20833;-77
2024/04/25 01:08:33;;;;;;;10.53;9.40;;;;;;;10.15;62.99;100016.81;5113017;28;21046;-78
2024/04/25 01:10:58;;;;;;;11.57;10.37;;;;;;;9.59;65.00;100019.38;5113152;28;20505;-77
2024/04/25 01:13:23;;;;;;;11.83;10.20;;;;;;;10.06;62.99;100010.75;5113163;28;20233;-77
2024/04/25 01:15:49;;;;;;;12.93;10.30;;;;;;;9.82;63.91;100015.94;5113399;27;20689;-77
2024/04/25 01:18:14;;;;;;;10.80;9.70;;;;;;;9.96;63.58;100011.63;5113159;27;20244;-76
2024/04/25 01:20:40;;;;;;;10.83;9.70;;;;;;;10.11;63.01;100008.16;5113110;27;20244;-75
2024/04/25 01:23:10;;;;;;;10.93;9.83;;;;;;;9.71;63.55;100016.78;5111813;27;20224;-78
2024/04/25 01:25:36;;;;;;;9.73;8.73;;;;;;;9.90;63.86;100004.69;5113242;27;20244;-77
2024/04/25 01:28:03;;;;;;;10.93;9.13;;;;;;;10.13;62.80;100002.94;5113264;27;20882;-79
2024/04/25 01:30:30;;;;;;;11.17;10.07;;;;;;;10.29;61.67;99995.09;5113619;27;20465;-77
2024/04/25 01:32:55;;;;;;;10.60;9.47;;;;;;;10.24;62.17;99995.97;5113113;28;20462;-77
2024/04/25 01:35:21;;;;;;;11.17;10.17;;;;;;;9.74;62.45;99998.59;5114767;27;20566;-77
2024/04/25 01:37:48;;;;;;;10.83;9.83;;;;;;;10.16;63.03;100000.34;5113911;27;20244;-77
2024/04/25 01:40:13;;;;;;;10.63;9.53;;;;;;;10.09;62.81;99991.66;5113892;27;20453;-77
2024/04/25 01:42:39;;;;;;;13.53;9.53;;;;;;;9.92;63.45;99989.06;5112675;27;20561;-77
2024/04/25 01:45:05;;;;;;;12.60;9.57;;;;;;;10.13;62.55;99995.13;5112561;27;20320;-77
2024/04/25 01:47:30;;;;;;;10.63;9.63;;;;;;;9.87;63.73;99994.25;5133305;22;20314;-75
2024/04/25 01:49:55;;;;;;;12.40;11.13;;;;;;;9.14;65.95;100005.41;5112051;27;20461;-75
2024/04/25 01:52:20;;;;;;;11.57;10.47;;;;;;;10.00;64.29;99995.13;5111589;28;20224;-76
2024/04/25 01:54:46;;;;;;;11.63;10.43;;;;;;;10.02;64.08;99997.75;5111855;27;20267;-75
2024/04/25 01:57:11;;;;;;;17.40;14.47;;;;;;;9.86;63.86;99992.50;5112157;27;20560;-75
2024/04/25 01:59:36;;;;;;;12.80;11.50;;;;;;;9.93;63.76;99999.47;5111753;27;20655;-75
2024/04/25 02:02:02;;;;;;;12.63;11.30;;;;;;;9.95;63.88;99995.13;5111693;27;20236;-75
2024/04/25 02:04:27;;;;;;;12.00;10.80;;;;;;;9.89;64.24;99999.47;5111922;27;20759;-75
2024/04/25 02:06:52;;;;;;;13.63;11.20;;;;;;;10.05;63.89;99997.72;5109913;28;20228;-75
2024/04/25 02:09:17;;;;;;;12.40;11.30;;;;;;;9.88;64.36;99989.94;5111409;27;20245;-75
2024/04/25 02:11:43;;;;;;;14.20;12.67;;;;;;;9.77;64.45;99992.53;5111565;27;20312;-76
2024/04/25 02:14:08;;;;;;;13.20;11.80;;;;;;;10.02;63.78;99993.38;5111345;27;20622;-75
2024/04/25 02:16:34;;;;;;;12.97;11.67;;;;;;;9.95;63.56;99991.66;5111499;27;20274;-75
2024/04/25 02:19:00;;;;;;;12.57;11.37;;;;;;;9.70;64.60;99996.88;5111263;27;20240;-75
2024/04/25 02:26:53;;;;;;;13.80;12.40;;;;;;;10.03;64.30;99995.13;5111413;28;20922;-75
2024/04/25 02:29:18;;;;;;;14.43;12.97;;;;;;;9.64;64.63;99993.38;5111255;27;20453;-75
2024/04/25 02:31:43;;;;;;;14.03;12.47;;;;;;;9.60;65.13;99993.34;5109376;28;20240;-75
2024/04/25 02:34:09;;;;;;;14.23;12.83;;;;;;;10.05;64.14;99996.00;5112425;27;20232;-75
2024/04/25 02:36:37;;;;;;;14.63;13.13;;;;;;;9.86;64.78;99989.06;5114622;27;20287;-75
2024/04/25 02:39:03;;;;;;;15.20;13.70;;;;;;;10.06;64.21;99981.25;5114377;27;20236;-76
2024/04/25 02:41:28;;;;;;;14.53;13.00;;;;;;;9.93;64.34;99982.97;5114861;27;20856;-75
2024/04/25 02:43:53;;;;;;;15.63;14.13;;;;;;;9.59;65.33;99991.63;5112384;27;20259;-75
2024/04/25 02:46:19;;;;;;;14.10;12.70;;;;;;;9.86;64.45;99983.84;5112919;28;20731;-75
2024/04/25 02:48:45;;;;;;;15.57;14.10;;;;;;;9.81;64.99;99977.75;5114166;28;20244;-75
2024/04/25 02:51:10;;;;;;;14.80;13.30;;;;;;;9.82;65.11;99979.50;5114291;27;20274;-75
2024/04/25 02:53:36;;;;;;;13.80;12.40;;;;;;;9.83;64.15;99976.91;5114137;27;20462;-75
2024/04/25 02:56:02;;;;;;;14.60;13.17;;;;;;;9.94;64.49;99976.91;5114310;27;20540;-75
2024/04/25 02:58:28;;;;;;;14.70;13.20;;;;;;;9.83;64.29;99971.69;5114224;27;20842;-75
2024/04/25 03:01:02;;;;;;;14.63;12.73;;;;;;;10.19;63.37;99971.66;5114267;27;20457;-75
2024/04/25 03:03:28;;;;;;;14.20;12.80;;;;;;;10.30;63.43;99969.94;5113839;27;20240;-74
2024/04/25 03:05:53;;;;;;;14.10;12.60;;;;;;;9.24;65.70;99973.34;5114121;27;20454;-76
2024/04/25 03:08:19;;;;;;;16.33;14.73;;;;;;;9.63;64.98;99969.06;5113473;27;20641;-75
2024/04/25 03:10:44;;;;;;;15.87;14.20;;;;;;;10.08;63.61;99971.69;5113746;27;20224;-75
2024/04/25 03:13:09;;;;;;;15.70;14.20;;;;;;;9.90;64.76;99963.03;5113981;27;20234;-75
2024/04/25 03:15:34;;;;;;;16.27;14.57;;;;;;;9.89;64.54;99965.63;5139050;27;20766;-75
2024/04/25 03:18:01;;;;;;;16.83;14.63;;;;;;;9.86;64.52;99970.81;5113927;27;20332;-75
2024/04/25 03:20:27;;;;;;;17.20;15.40;;;;;;;9.90;64.46;99973.44;5113748;27;20259;-75
2024/04/25 03:22:52;;;;;;;16.80;15.03;;;;;;;10.30;63.24;99975.16;5112037;27;20458;-75
2024/04/25 03:25:17;;;;;;;15.93;14.33;;;;;;;10.21;62.85;99969.94;5113865;27;20224;-75
2024/04/25 03:27:43;;;;;;;16.40;14.70;;;;;;;10.08;63.83;99975.16;5111978;28;20248;-75
2024/04/25 03:30:09;;;;;;;16.60;14.90;;;;;;;10.21;62.97;99962.97;5113789;27;20247;-75
2024/04/25 03:32:34;;;;;;;16.67;14.43;;;;;;;10.23;63.11;99963.00;5113282;27;20442;-75
2024/04/25 03:35:00;;;;;;;15.53;14.03;;;;;;;9.83;64.17;99969.09;5114107;27;20237;-75
2024/04/25 03:37:26;;;;;;;17.60;15.90;;;;;;;10.08;63.64;99967.34;5113722;27;20621;-76
2024/04/25 03:39:51;;;;;;;15.70;14.10;;;;;;;10.03;63.58;99968.22;5113821;27;20232;-75
2024/04/25 03:42:16;;;;;;;19.70;15.10;;;;;;;9.56;64.35;99975.16;5111795;28;20547;-75
2024/04/25 03:44:42;;;;;;;15.90;14.30;;;;;;;9.40;64.03;99975.13;5112951;27;20360;-75
2024/04/25 03:47:07;;;;;;;17.40;14.90;;;;;;;9.74;64.23;99977.78;5112944;27;20221;-75
2024/04/25 03:49:32;;;;;;;17.70;14.90;;;;;;;10.08;63.11;99984.69;5113964;27;20344;-76
2024/04/25 03:51:59;;;;;;;18.20;14.23;;;;;;;10.16;62.52;99974.28;5113257;27;20324;-75
2024/04/25 03:54:26;;;;;;;15.97;14.23;;;;;;;10.06;63.21;99976.88;5113924;27;20622;-75
2024/04/25 03:56:51;;;;;;;17.83;16.00;;;;;;;10.00;63.98;99978.63;5113692;27;20450;-75
2024/04/25 03:59:17;;;;;;;17.57;15.80;;;;;;;10.08;63.77;99980.38;5113382;27;20505;-76
2024/04/25 04:01:43;;;;;;;17.93;15.00;;;;;;;10.10;64.31;99976.03;5112720;27;20274;-74
2024/04/25 04:04:08;;;;;;;18.17;16.27;;;;;;;10.05;64.21;99982.09;5112600;27;20550;-76
2024/04/25 04:06:33;;;;;;;17.20;15.50;;;;;;;10.32;63.67;99975.13;5112784;27;20264;-74
2024/04/25 04:08:58;;;;;;;17.97;16.07;;;;;;;10.06;64.30;99971.69;5111325;27;20256;-74
2024/04/25 04:11:24;;;;;;;16.50;14.90;;;;;;;9.93;64.51;99983.84;5113140;27;20278;-75
2024/04/25 04:13:49;;;;;;;16.47;14.87;;;;;;;9.79;65.68;99977.75;5138097;27;20304;-76
2024/04/25 04:16:14;;;;;;;16.57;14.87;;;;;;;9.65;65.58;99987.28;5113104;27;20578;-75
2024/04/25 04:18:41;;;;;;;17.20;15.33;;;;;;;9.95;65.88;99984.72;5113343;27;20283;-76
2024/04/25 04:21:06;;;;;;;17.17;15.37;;;;;;;9.99;65.47;99988.19;5111365;28;20241;-76
2024/04/25 04:23:31;;;;;;;18.27;16.37;;;;;;;9.94;65.25;99989.91;5111404;27;20546;-76
2024/04/25 04:25:57;;;;;;;19.53;16.73;;;;;;;9.98;65.84;99988.19;5111378;28;20272;-75
2024/04/25 04:28:22;;;;;;;17.87;16.07;;;;;;;10.07;65.18;99991.66;5112771;27;20345;-76
2024/04/25 04:30:47;;;;;;;17.73;15.87;;;;;;;9.96;65.86;99993.41;5113289;27;20229;-75
2024/04/25 04:33:12;;;;;;;19.27;16.47;;;;;;;9.50;66.73;99991.63;5112732;28;20684;-76
2024/04/25 04:35:38;;;;;;;20.63;17.33;;;;;;;10.00;65.68;99987.31;5113108;27;20236;-77
2024/04/25 04:38:03;;;;;;;26.30;21.80;;;;;;;9.97;65.63;99989.91;5112903;27;20734;-76
2024/04/25 04:40:28;;;;;;;23.43;19.33;;;;;;;9.99;65.52;99982.97;5112938;27;20279;-75
2024/04/25 04:42:54;;;;;;;20.67;18.47;;;;;;;9.91;66.21;99976.91;5112593;27;20266;-74
2024/04/25 04:45:19;;;;;;;23.03;20.10;;;;;;;10.29;65.13;99981.22;5112722;27;20241;-75
2024/04/25 04:47:44;;;;;;;21.30;18.10;;;;;;;10.25;64.90;99984.69;5112605;27;20244;-76
2024/04/25 04:50:09;;;;;;;20.17;18.07;;;;;;;10.06;65.48;99984.69;5110946;27;20648;-75
2024/04/25 04:52:35;;;;;;;18.13;16.23;;;;;;;10.20;65.78;99982.13;5110770;28;20232;-76
2024/04/25 04:55:00;;;;;;;20.53;18.40;;;;;;;10.09;64.97;99979.53;5112700;27;20644;-75
2024/04/25 04:57:26;;;;;;;20.70;17.20;;;;;;;9.97;64.87;99981.25;5112086;27;20352;-75
2024/04/25 04:59:51;;;;;;;20.17;17.60;;;;;;;10.21;64.89;99976.00;5110907;28;20240;-75
2024/04/25 05:02:16;;;;;;;20.10;17.20;;;;;;;9.86;65.78;99982.09;5112390;27;20228;-75
2024/04/25 05:04:42;;;;;;;20.50;18.40;;;;;;;10.17;64.96;99981.25;5112528;27;20264;-77
2024/04/25 05:07:07;;;;;;;21.07;18.70;;;;;;;10.11;65.17;99987.31;5112111;27;20228;-75
2024/04/25 05:09:33;;;;;;;20.87;18.27;;;;;;;10.14;65.02;99981.25;5112513;27;20236;-75
2024/04/25 05:11:59;;;;;;;20.17;18.03;;;;;;;10.10;65.18;99991.66;5111908;27;20229;-75
2024/04/25 05:14:24;;;;;;;21.70;18.93;;;;;;;10.27;65.24;99982.97;5111849;27;20824;-75
2024/04/25 05:16:50;;;;;;;22.63;20.23;;;;;;;10.23;65.24;99981.25;5113095;27;20335;-75
2024/04/25 05:19:15;;;;;;;23.40;20.60;;;;;;;10.23;65.01;99983.84;5112388;27;20271;-75
2024/04/25 05:21:43;;;;;;;24.30;21.70;;;;;;;9.98;65.15;99985.59;5112387;27;20670;-75
2024/04/25 05:24:08;;;;;;;25.03;22.33;;;;;;;10.39;64.22;99988.19;5111282;28;20236;-75
2024/04/25 05:26:33;;;;;;;45.03;35.20;;;;;;;10.35;64.20;99986.47;5112057;27;20508;-75
2024/04/25 05:28:59;;;;;;;26.77;23.77;;;;;;;10.40;64.05;99983.84;5111745;27;20325;-76
2024/04/25 05:31:24;;;;;;;24.70;22.10;;;;;;;10.44;64.40;99981.25;5111669;27;20279;-76
2024/04/25 05:33:50;;;;;;;26.43;23.30;;;;;;;10.35;65.03;99983.84;5111188;28;20248;-74
2024/04/25 05:36:15;;;;;;;24.63;21.90;;;;;;;10.40;64.91;99992.50;5110082;28;20633;-76
2024/04/25 05:38:40;;;;;;;24.90;20.43;;;;;;;10.27;65.08;99993.41;5112384;27;20245;-76
2024/04/25 05:41:06;;;;;;;23.87;21.37;;;;;;;9.75;65.56;99992.50;5112884;27;20228;-74
2024/04/25 05:43:31;;;;;;;23.90;20.47;;;;;;;10.05;66.00;100000.34;5112671;27;20232;-76
2024/04/25 05:45:58;;;;;;;24.33;20.57;;;;;;;9.86;65.35;99989.91;5112119;27;20351;-76
2024/04/25 05:48:24;;;;;;;23.70;20.57;;;;;;;9.70;66.06;100001.19;5138112;27;20248;-75
2024/04/25 05:50:49;;;;;;;25.13;22.17;;;;;;;10.24;65.07;99999.47;5137209;27;20512;-75
2024/04/25 05:53:14;;;;;;;26.07;23.23;;;;;;;10.10;65.01;99999.47;5111728;27;20232;-75
2024/04/25 05:55:41;;;;;;;27.60;23.40;;;;;;;10.03;65.32;100000.34;5084044;28;20228;-76
2024/04/25 05:58:06;;;;;;;25.23;21.73;;;;;;;10.33;64.11;99997.72;5110134;28;20248;-75
2024/04/25 06:00:32;;;;;;;24.40;21.00;;;;;;;10.25;64.57;100000.31;5111543;27;20437;-74
2024/04/25 06:02:57;;;;;;;24.57;21.83;;;;;;;10.05;64.77;100003.81;5112147;27;20760;-76
2024/04/25 06:05:22;;;;;;;25.57;21.83;;;;;;;10.18;64.51;99996.84;5112875;27;20283;-75
2024/04/25 06:07:48;;;;;;;25.67;22.03;;;;;;;10.19;64.42;99995.09;5110266;28;20278;-76
2024/04/25 06:10:13;;;;;;;25.97;21.77;;;;;;;10.49;63.92;99993.38;5114573;27;20543;-75
2024/04/25 06:12:38;;;;;;;24.50;21.87;;;;;;;10.18;64.85;100001.22;5115984;27;20232;-76
2024/04/25 06:15:04;;;;;;;28.13;23.60;;;;;;;10.17;64.48;100000.31;5115756;27;20372;-75
2024/04/25 06:17:29;;;;;;;52.37;39.63;;;;;;;10.39;63.88;99993.41;5114482;27;20332;-76
2024/04/25 06:19:55;;;;;;;25.50;22.80;;;;;;;9.82;64.97;100002.94;5113218;27;20512;-76
2024/04/25 06:22:20;;;;;;;25.50;21.67;;;;;;;10.11;63.78;100003.81;5114090;27;20379;-75
2024/04/25 06:24:45;;;;;;;24.77;22.00;;;;;;;10.21;64.07;100004.66;5115005;27;20224;-76
2024/04/25 06:27:10;;;;;;;26.33;22.03;;;;;;;10.28;63.92;99987.28;5114334;27;20237;-75
2024/04/25 06:29:36;;;;;;;32.33;22.30;;;;;;;10.05;64.49;100003.81;5114162;27;20259;-75
2024/04/25 06:32:01;;;;;;;25.00;21.73;;;;;;;10.46;63.51;100007.28;5114408;27;20228;-76
2024/04/25 06:34:30;;;;;;;26.63;23.23;;;;;;;10.56;63.51;100005.53;5114218;27;20661;-75
2024/04/25 06:36:56;;;;;;;25.40;22.37;;;;;;;10.88;63.22;100010.66;5116053;27;20339;-77
2024/04/25 06:39:22;;;;;;;25.83;23.10;;;;;;;10.93;62.23;100005.41;5114085;27;20495;-76
2024/04/25 06:41:47;;;;;;;25.73;23.07;;;;;;;10.18;63.28;100009.88;5114055;27;20450;-76
2024/04/25 06:44:12;;;;;;;26.50;23.20;;;;;;;10.37;62.43;100009.91;5114795;27;20359;-76
2024/04/25 06:46:37;;;;;;;26.10;23.30;;;;;;;10.85;61.98;100008.06;5114251;27;20233;-76
2024/04/25 06:49:03;;;;;;;25.10;22.20;;;;;;;10.73;62.27;100014.19;5114495;27;20248;-76
2024/04/25 06:51:30;;;;;;;29.63;24.00;;;;;;;10.28;63.05;100015.94;5114852;27;20406;-75
2024/04/25 06:53:55;;;;;;;30.07;25.90;;;;;;;10.66;62.25;100012.44;5113832;27;20229;-75
2024/04/25 06:56:20;;;;;;;28.97;24.93;;;;;;;10.41;62.47;100017.72;5115069;27;20572;-75
2024/04/25 06:58:46;;;;;;;30.40;25.83;;;;;;;10.70;61.74;100016.81;5114487;27;20710;-76
2024/04/25 07:01:11;;;;;;;27.10;23.43;;;;;;;10.81;60.99;100011.56;5113990;27;20309;-77
2024/04/25 07:03:37;;;;;;;28.20;24.07;;;;;;;10.67;61.78;100019.38;5113821;27;20598;-76
2024/04/25 07:06:03;;;;;;;29.30;22.63;;;;;;;10.56;62.01;100010.75;5138855;27;20250;-75
2024/04/25 07:08:30;;;;;;;29.50;24.00;;;;;;;10.19;63.25;100021.16;5113668;27;20449;-75
2024/04/25 07:10:55;;;;;;;24.80;21.40;;;;;;;10.74;61.07;100015.91;5139220;27;20356;-74
2024/04/25 07:13:20;;;;;;;26.60;21.90;;;;;;;10.98;60.84;100014.09;5115230;27;20472;-76
2024/04/25 07:15:46;;;;;;;25.13;21.37;;;;;;;10.91;60.72;100017.59;5113480;27;20777;-76
2024/04/25 07:18:12;;;;;;;22.93;19.93;;;;;;;10.71;60.26;100018.50;5113645;27;20244;-75
2024/04/25 07:20:37;;;;;;;27.10;20.87;;;;;;;10.65;60.54;100018.53;5113951;27;20274;-76
2024/04/25 07:23:03;;;;;;;23.27;19.70;;;;;;;10.71;59.90;100015.91;5113526;27;20501;-76
2024/04/25 07:25:28;;;;;;;23.97;19.87;;;;;;;10.79;59.63;100010.69;5114038;27;20229;-76
2024/04/25 07:27:54;;;;;;;22.80;18.93;;;;;;;10.67;59.48;100008.97;5111629;28;20287;-75
2024/04/25 07:30:20;;;;;;;24.03;18.00;;;;;;;11.51;58.90;100009.47;5113593;27;20229;-74
2024/04/25 07:32:45;;;;;;;22.27;17.77;;;;;;;11.51;58.61;100006.00;5113088;27;20458;-76
2024/04/25 07:35:11;;;;;;;24.20;16.10;;;;;;;11.80;58.13;99998.84;5112865;27;20698;-76
2024/04/25 07:37:37;;;;;;;20.57;16.63;;;;;;;11.31;57.96;100012.19;5111426;28;20248;-76
2024/04/25 07:40:07;;;;;;;17.47;15.23;;;;;;;11.67;57.52;100002.41;5113164;27;20339;-76
2024/04/25 07:42:33;;;;;;;20.53;14.50;;;;;;;11.59;57.74;100004.22;5112975;27;20462;-76
2024/04/25 07:45:01;;;;;;;19.30;16.13;;;;;;;11.79;57.51;100004.94;5112996;27;20470;-76
2024/04/25 07:47:26;;;;;;;20.27;15.03;;;;;;;11.14;57.80;100009.69;5132769;22;20893;-84
2024/04/25 07:49:52;;;;;;;16.10;14.40;;;;;;;11.07;58.16;100005.38;5120656;27;20527;-82
2024/04/25 07:52:18;;;;;;;17.67;13.87;;;;;;;11.26;57.49;100011.38;5120537;27;20336;-82
2024/04/25 07:54:44;;;;;;;17.17;14.70;;;;;;;11.82;57.21;100005.81;5120098;27;20893;-83
2024/04/25 07:57:09;;;;;;;17.93;15.73;;;;;;;11.94;57.00;100004.00;5120007;28;20240;-82
2024/04/25 07:59:34;;;;;;;19.37;14.50;;;;;;;11.35;58.02;100003.50;5119177;27;20694;-82
2024/04/25 08:02:00;;;;;;;16.10;14.20;;;;;;;11.76;57.07;100004.13;5115893;28;20272;-83
2024/04/25 08:04:25;;;;;;;13.93;12.43;;;;;;;11.75;55.58;100010.22;5121367;27;20228;-82
2024/04/25 08:06:50;;;;;;;15.33;12.70;;;;;;;11.93;57.03;100004.84;5121172;27;20271;-82
2024/04/25 08:09:15;;;;;;;17.07;14.23;;;;;;;12.37;54.17;99992.31;5118057;27;20614;-82
2024/04/25 08:11:41;;;;;;;14.47;12.97;;;;;;;12.23;55.66;99999.41;5118435;27;20236;-82
2024/04/25 08:14:06;;;;;;;13.90;12.50;;;;;;;12.58;55.26;100003.41;5119187;27;20248;-82
2024/04/25 08:16:32;;;;;;;16.27;14.40;;;;;;;12.64;53.52;100000.75;5119801;27;20314;-82
2024/04/25 08:18:57;;;;;;;12.80;11.40;;;;;;;12.57;53.72;100001.69;5118944;27;20754;-81
2024/04/25 08:21:22;;;;;;;12.50;10.60;;;;;;;12.33;54.61;99997.59;5120319;27;20271;-83
2024/04/25 08:23:48;;;;;;;11.00;9.90;;;;;;;11.86;54.49;100000.53;5118600;27;20279;-83
2024/04/25 08:26:13;;;;;;;11.07;9.97;;;;;;;12.44;53.31;100001.81;5117930;27;21034;-82
2024/04/25 08:28:39;;;;;;;11.53;10.43;;;;;;;12.40;53.70;100001.88;5121203;27;20364;-83
2024/04/25 08:31:05;;;;;;;10.43;9.33;;;;;;;12.58;53.04;100004.31;5121832;27;20235;-84
2024/04/25 08:33:30;;;;;;;52.77;32.53;;;;;;;12.21;51.88;100001.19;5124932;27;20275;-86
2024/04/25 08:35:55;;;;;;;14.60;11.73;;;;;;;12.85;51.57;99996.16;5125402;27;20233;-84
2024/04/25 08:38:21;;;;;;;12.10;10.90;;;;;;;13.20;52.29;100005.31;5127942;27;20304;-82
2024/04/25 08:40:50;;;;;;;12.30;11.10;;;;;;;12.79;52.99;99997.09;5130000;27;20291;-83
2024/04/25 08:43:15;;;;;;;13.03;10.70;;;;;;;12.62;51.77;100002.50;5131626;28;20511;-83
2024/04/25 08:45:41;;;;;;;13.97;11.30;;;;;;;12.89;52.91;99993.47;5131277;27;20454;-83
2024/04/25 08:48:11;;;;;;;11.57;10.40;;;;;;;13.06;51.44;100003.75;5130773;27;20248;-84
2024/04/25 08:50:38;;;;;;;11.37;10.27;;;;;;;13.07;52.31;99995.00;5128959;28;20302;-81
2024/04/25 08:53:06;;;;;;;10.47;9.43;;;;;;;13.47;50.77;99989.25;5126426;27;20449;-84
2024/04/25 08:55:33;;;;;;;9.87;8.90;;;;;;;13.02;49.65;99991.59;5126814;27;20490;-83
2024/04/25 08:58:00;;;;;;;11.80;10.70;;;;;;;14.12;49.03;99977.75;5130938;28;20462;-83
2024/04/25 09:00:25;;;;;;;11.10;10.03;;;;;;;13.55;49.24;99985.69;5124874;27;20528;-84
2024/04/25 09:02:51;;;;;;;9.50;8.13;;;;;;;14.14;48.59;99983.00;5119142;27;20470;-83
2024/04/25 09:05:20;;;;;;;11.70;9.80;;;;;;;13.35;48.54;99988.53;5118471;27;20232;-82
2024/04/25 09:07:45;;;;;;;9.20;8.23;;;;;;;14.00;47.41;99977.97;5118004;28;20865;-83
2024/04/25 09:10:12;;;;;;;8.20;7.40;;;;;;;13.74;47.41;99976.63;5118184;28;20430;-83
2024/04/25 09:12:37;;;;;;;8.13;7.33;;;;;;;13.16;48.10;99980.94;5120241;27;20240;-83
2024/04/25 09:15:03;;;;;;;9.53;8.50;;;;;;;14.17;47.60;99969.81;5120104;27;20519;-82
2024/04/25 09:17:28;;;;;;;9.30;7.70;;;;;;;14.17;47.02;99971.56;5119182;27;20232;-82
2024/04/25 09:19:56;;;;;;;9.73;8.73;;;;;;;14.77;46.46;99967.88;5119004;27;20228;-84
2024/04/25 09:22:21;;;;;;;9.30;8.40;;;;;;;14.68;45.86;99966.31;5119327;27;20296;-83
2024/04/25 09:24:47;;;;;;;8.57;7.67;;;;;;;14.68;46.90;99968.03;5119212;27;20794;-80
2024/04/25 09:27:12;;;;;;;7.93;7.23;;;;;;;14.73;44.94;99958.31;5118461;27;20240;-83
2024/04/25 09:29:38;;;;;;;7.60;6.90;;;;;;;14.64;44.58;99956.78;5118342;27;20240;-84
2024/04/25 09:32:04;;;;;;;7.50;6.50;;;;;;;15.17;44.21;99959.16;5119132;27;20278;-83
2024/04/25 09:34:30;;;;;;;7.80;6.97;;;;;;;14.92;45.19;99958.81;5119055;27;20233;-83
2024/04/25 09:36:55;;;;;;;9.10;6.70;;;;;;;13.33;46.94;99970.25;5119741;27;20938;-82
2024/04/25 09:39:21;;;;;;;7.53;6.73;;;;;;;13.28;49.29;99977.28;5119684;27;20241;-83
2024/04/25 09:41:48;;;;;;;9.17;8.27;;;;;;;13.40;49.70;99979.75;5123484;27;20270;-83
2024/04/25 09:44:13;;;;;;;8.37;7.53;;;;;;;12.94;52.74;99988.19;5129599;27;20252;-84
2024/04/25 09:46:45;;;;;;;9.27;8.33;;;;;;;12.78;53.26;99982.28;5131839;28;20449;-82
2024/04/25 09:49:15;;;;;;;9.13;8.13;;;;;;;12.27;54.21;99986.31;5131385;27;20299;-81
2024/04/25 09:51:53;;;;;;;9.13;8.23;;;;;;;13.28;55.03;99987.75;5130031;27;20505;-82
2024/04/25 09:54:26;;;;;;;8.83;7.93;;;;;;;13.21;53.78;99983.50;5129597;28;20483;-84
2024/04/25 09:56:57;;;;;;;9.00;8.10;;;;;;;12.74;53.45;99981.44;5130611;27;20886;-83
2024/04/25 09:59:36;;;;;;;9.17;8.27;;;;;;;12.92;53.79;99979.50;5128305;28;20477;-83
2024/04/25 10:02:03;;;;;;;9.30;8.40;;;;;;;13.61;51.15;99970.75;5129435;28;20499;-83
2024/04/25 10:04:31;;;;;;;61.17;41.10;;;;;;;13.59;52.06;99972.50;5128071;28;20513;-82
2024/04/25 10:06:59;;;;;;;16.30;13.70;;;;;;;14.27;49.51;99960.88;5129167;27;20523;-82
2024/04/25 10:09:24;;;;;;;11.20;9.80;;;;;;;14.25;49.88;99956.59;5128127;27;20481;-84
2024/04/25 10:11:50;;;;;;;17.50;14.80;;;;;;;15.16;49.42;99952.19;5123524;28;20513;-83
2024/04/25 10:14:28;;;;;;;11.30;10.13;;;;;;;15.05;47.70;99951.56;5124332;27;20236;-83
2024/04/25 10:16:53;;;;;;;8.83;8.03;;;;;;;15.39;47.97;99937.66;5121229;27;20236;-84
2024/04/25 10:19:19;;;;;;;8.07;7.27;;;;;;;15.19;46.80;99946.84;5121198;27;20841;-85
2024/04/25 10:21:45;;;;;;;35.33;25.70;;;;;;;15.40;47.46;99952.53;5127167;27;20279;-83
2024/04/25 10:24:13;;;;;;;13.10;10.73;;;;;;;14.41;48.38;99955.41;5122019;27;20726;-83
2024/04/25 10:26:49;;;;;;;7.70;7.00;;;;;;;13.47;50.17;99960.44;5119765;27;20422;-83
2024/04/25 10:29:15;;;;;;;7.43;6.67;;;;;;;14.10;49.95;99952.50;5118426;27;20549;-82
2024/04/25 10:31:41;;;;;;;8.93;8.07;;;;;;;14.32;50.20;99953.81;5118206;27;20472;-83
2024/04/25 10:34:08;;;;;;;7.73;7.00;;;;;;;14.66;49.42;99949.72;5119015;27;20267;-83
2024/04/25 10:36:34;;;;;;;10.40;6.43;;;;;;;15.13;46.98;99944.38;5119088;27;20488;-82
2024/04/25 10:39:00;;;;;;;29.47;23.50;;;;;;;14.98;44.25;99940.31;5120573;27;20461;-82
2024/04/25 10:41:36;;;;;;;7.33;6.63;;;;;;;14.37;45.54;99945.00;5118649;27;20275;-82
2024/04/25 10:44:05;;;;;;;7.33;6.63;;;;;;;14.38;46.33;99955.44;5116203;27;20445;-82
2024/04/25 10:46:30;;;;;;;45.70;38.70;;;;;;;13.93;47.59;99950.16;5129741;27;20425;-81
2024/04/25 10:48:56;;;;;;;13.80;12.30;;;;;;;13.91;47.17;99954.53;5126310;27;21091;-81
2024/04/25 10:51:21;;;;;;;8.00;6.00;;;;;;;14.43;47.22;99950.97;5118670;27;20237;-85
2024/04/25 10:53:48;;;;;;;10.23;7.87;;;;;;;13.79;48.28;99953.00;5118490;28;20475;-82
2024/04/25 10:56:15;;;;;;;5.37;4.83;;;;;;;13.41;49.41;99967.53;5116750;28;20251;-81
2024/04/25 10:58:51;;;;;;;5.50;5.00;;;;;;;13.96;48.72;99960.56;5118287;28;20453;-82
2024/04/25 11:01:24;;;;;;;6.00;5.40;;;;;;;14.01;48.91;99958.75;5118746;28;20865;-83
2024/04/25 11:03:56;;;;;;;9.97;8.57;;;;;;;13.66;48.27;99962.78;5117550;28;20453;-83
2024/04/25 11:06:23;;;;;;;4.80;4.30;;;;;;;12.86;48.81;99969.97;5119536;28;20512;-80
2024/04/25 11:08:49;;;;;;;4.90;3.73;;;;;;;13.73;48.27;99959.19;5118222;28;20521;-82
2024/04/25 11:11:14;;;;;;;6.57;5.30;;;;;;;14.34;47.54;99958.16;5144516;27;20473;-82
2024/04/25 11:13:39;;;;;;;5.50;4.30;;;;;;;14.10;46.60;99948.09;5120944;27;20228;-82
2024/04/25 11:16:05;;;;;;;4.83;4.33;;;;;;;14.15;47.49;99955.88;5120265;27;20267;-82
2024/04/25 11:18:31;;;;;;;4.60;4.20;;;;;;;14.43;46.71;99953.59;5124226;27;20791;-81